首页
METAR-TAF:

METAR-TAF

机场 :

底特律, 密歇根州, 美国

纬度: 42-14-12N, 经度: 083-31-34W, 海拔: 218米

当前天气观测

该预报发布于1小时和12分钟前的19:53 UTC
风速10节,风向,有时为19节阵风
温度 29°C
湿度 29%
气压 1015 hPa
能見度: 16.1公里
少量云层高于7500英尺

METAR: KYIP 061953Z 35010G19KT 10SM FEW075 29/09 A2997 RMK AO2 SLP140 T02890094

时间: 17:05 (21:05 UTC)

预报

该预报发布于3小时和44分钟前的17:21 UTC
预报有效从06日的 18点(UTC)到 07日的 18点(UTC)
风速12节,风向西北,有时为20节阵风
能見度: 10公里
散云层高于5000英尺
从 07日的 0100点(UTC)
风速4节,风向北转东北
能見度: 10公里
天空无云
从 07日的 1200点(UTC)
风速6节,风向东北
能見度: 10公里
少量云层高于25000英尺

TAF: KYIP 061721Z 0618/0718 32012G20KT P6SM SCT050 FM070100 03004KT P6SM SKC FM071200 05006KT P6SM FEW250

超过4000个机场的气象观测和天气预报(METAR&TAF报告)。

可查询的气象台以黄色和红色小点在地图上表示。

将鼠标移到小点上方,可查看气象台名称。

然后点击查看天气观测和预报。

如需切换地图:点击带黑十字的绿色按钮放大地图;点击带横线的绿色按钮缩小地图;或者点击绿色箭头查看邻近地区的地图。


METAR-TAF: